createdAt,value
2022-12-25T00:00:50.033Z,23
2022-12-25T00:01:50.038Z,18
2022-12-25T00:02:50.150Z,18
2022-12-25T00:03:50.341Z,15
2022-12-25T00:04:50.029Z,21
2022-12-25T00:05:49.994Z,20
2022-12-25T00:06:50.015Z,18
2022-12-25T00:08:50.002Z,17
2022-12-25T00:09:50.007Z,21
2022-12-25T00:10:50.026Z,21
2022-12-25T00:11:50.031Z,17
2022-12-25T00:12:50.090Z,18
2022-12-25T00:13:50.033Z,19
2022-12-25T00:14:50.004Z,16
2022-12-25T00:15:50.033Z,20
2022-12-25T00:16:50.103Z,16
2022-12-25T00:17:50.049Z,23
2022-12-25T00:18:50.020Z,18
2022-12-25T00:19:50.005Z,18
2022-12-25T00:20:49.999Z,16
2022-12-25T00:21:50.009Z,17
2022-12-25T00:22:50.010Z,18
2022-12-25T00:23:50.009Z,14
2022-12-25T00:24:50.055Z,17
2022-12-25T00:25:50.033Z,15
2022-12-25T00:26:50.002Z,16
2022-12-25T00:27:50.021Z,18
2022-12-25T00:29:50.012Z,15
2022-12-25T00:30:50.007Z,17
2022-12-25T00:31:50.348Z,19
2022-12-25T00:32:50.036Z,17
2022-12-25T00:33:50.003Z,16
2022-12-25T00:34:50.055Z,17
2022-12-25T00:35:50.032Z,18
2022-12-25T00:36:50.033Z,15
2022-12-25T00:37:50.015Z,15
2022-12-25T00:38:50.011Z,14
2022-12-25T00:39:50.033Z,14
2022-12-25T00:40:50.006Z,14
2022-12-25T00:41:50.005Z,18
2022-12-25T00:42:50.013Z,15
2022-12-25T00:43:50.009Z,12
2022-12-25T00:44:50.016Z,15
2022-12-25T00:45:50.109Z,17
2022-12-25T00:46:50.046Z,17
2022-12-25T00:47:50.025Z,16
2022-12-25T00:48:50.014Z,17
2022-12-25T00:49:50.032Z,16
2022-12-25T00:50:50.078Z,17
2022-12-25T00:51:50.009Z,19
2022-12-25T00:52:50.010Z,14
2022-12-25T00:53:50.039Z,12
2022-12-25T00:54:50.020Z,16
2022-12-25T00:55:50.010Z,17
2022-12-25T00:56:50.011Z,13
2022-12-25T00:57:50.063Z,18
2022-12-25T00:58:50.022Z,14
2022-12-25T00:59:50.027Z,16
2022-12-25T01:00:50.054Z,16
2022-12-25T01:01:50.202Z,17
2022-12-25T01:02:50.177Z,14
2022-12-25T01:03:50.038Z,17
2022-12-25T01:04:50.011Z,14
2022-12-25T01:05:49.994Z,16
2022-12-25T01:06:50.040Z,17
2022-12-25T01:07:49.999Z,17
2022-12-25T01:08:50.030Z,14
2022-12-25T01:09:50.002Z,14
2022-12-25T01:10:50.010Z,13
2022-12-25T01:11:50.016Z,14
2022-12-25T01:12:50.013Z,12
2022-12-25T01:13:50.010Z,12
2022-12-25T01:14:50.059Z,14
2022-12-25T01:15:50.007Z,16
2022-12-25T01:16:50.109Z,13
2022-12-25T01:17:50.089Z,10
2022-12-25T01:18:50.019Z,11
2022-12-25T01:19:50.014Z,11
2022-12-25T01:20:50.163Z,11
2022-12-25T01:21:50.023Z,12
2022-12-25T01:22:50.023Z,11
2022-12-25T01:23:50.008Z,11
2022-12-25T01:24:50.024Z,12
2022-12-25T01:25:50.009Z,11
2022-12-25T01:27:50.003Z,11
2022-12-25T01:28:50.028Z,12
2022-12-25T01:29:50.028Z,8
2022-12-25T01:30:50.008Z,9
2022-12-25T01:31:50.079Z,10
2022-12-25T01:32:50.061Z,10
2022-12-25T01:33:50.007Z,8
2022-12-25T01:34:55.638Z,9
2022-12-25T01:35:50.027Z,9
2022-12-25T01:36:50.008Z,8
2022-12-25T01:38:50.008Z,8
2022-12-25T01:39:50.020Z,12
2022-12-25T01:41:50.000Z,9
2022-12-25T01:42:50.000Z,10
2022-12-25T01:43:50.005Z,10
2022-12-25T01:44:50.052Z,8
2022-12-25T01:45:50.060Z,10
2022-12-25T01:46:50.010Z,10
2022-12-25T01:47:50.006Z,12
2022-12-25T01:48:50.012Z,8
2022-12-25T01:49:50.038Z,7
2022-12-25T01:50:50.001Z,10
2022-12-25T01:51:50.061Z,9
2022-12-25T01:52:50.011Z,8
2022-12-25T01:53:50.010Z,14
2022-12-25T01:54:50.003Z,11
2022-12-25T01:55:50.006Z,9
2022-12-25T01:56:50.012Z,11
2022-12-25T01:57:50.005Z,9
2022-12-25T01:59:50.018Z,8
2022-12-25T02:00:50.080Z,8
2022-12-25T02:02:50.265Z,8
2022-12-25T02:03:50.037Z,8
2022-12-25T02:04:50.008Z,8
2022-12-25T02:05:50.085Z,7
2022-12-25T02:06:50.028Z,7
2022-12-25T02:07:50.000Z,6
2022-12-25T02:08:50.055Z,6
2022-12-25T02:09:50.036Z,9
2022-12-25T02:10:50.013Z,10
2022-12-25T02:11:50.012Z,10
2022-12-25T02:12:50.060Z,7
2022-12-25T02:13:50.028Z,8
2022-12-25T02:14:50.018Z,9
2022-12-25T02:15:50.014Z,11
2022-12-25T02:16:56.848Z,9
2022-12-25T02:17:50.012Z,10
2022-12-25T02:18:50.010Z,9
2022-12-25T02:20:50.036Z,8
2022-12-25T02:21:50.015Z,8
2022-12-25T02:23:50.023Z,11
2022-12-25T02:24:50.047Z,12
2022-12-25T02:25:50.033Z,8
2022-12-25T02:26:50.027Z,11
2022-12-25T02:27:50.012Z,9
2022-12-25T02:28:50.008Z,11
2022-12-25T02:29:50.013Z,9
2022-12-25T02:30:50.015Z,11
2022-12-25T02:31:50.143Z,10
2022-12-25T02:32:50.029Z,7
2022-12-25T02:33:50.014Z,9
2022-12-25T02:34:50.015Z,9
2022-12-25T02:35:50.024Z,11
2022-12-25T02:36:50.025Z,11
2022-12-25T02:37:50.036Z,12
2022-12-25T02:38:50.038Z,9
2022-12-25T02:39:50.050Z,10
2022-12-25T02:40:50.031Z,7
2022-12-25T02:41:50.016Z,12
2022-12-25T02:42:50.013Z,9
2022-12-25T02:43:50.014Z,9
2022-12-25T02:44:50.032Z,8
2022-12-25T02:45:50.126Z,7
2022-12-25T02:46:50.016Z,11
2022-12-25T02:47:50.028Z,10
2022-12-25T02:48:50.021Z,10
2022-12-25T02:49:50.027Z,7
2022-12-25T02:50:50.096Z,11
2022-12-25T02:51:50.034Z,7
2022-12-25T02:52:50.054Z,7
2022-12-25T02:53:50.019Z,10
2022-12-25T02:54:50.030Z,7
2022-12-25T02:55:50.025Z,9
2022-12-25T02:56:50.022Z,10
2022-12-25T02:57:50.007Z,8
2022-12-25T02:58:50.026Z,11
2022-12-25T02:59:50.040Z,11
2022-12-25T03:00:50.093Z,8
2022-12-25T03:01:50.128Z,10
2022-12-25T03:02:50.029Z,10
2022-12-25T03:03:50.083Z,6
2022-12-25T03:04:50.018Z,10
2022-12-25T03:05:50.023Z,9
2022-12-25T03:06:50.045Z,8
2022-12-25T03:07:50.023Z,9
2022-12-25T03:08:50.139Z,9
2022-12-25T03:09:50.027Z,7
2022-12-25T03:10:50.047Z,8
2022-12-25T03:11:50.034Z,7
2022-12-25T03:13:50.053Z,9
2022-12-25T03:14:50.021Z,8
2022-12-25T03:15:50.016Z,10
2022-12-25T03:16:50.129Z,11
2022-12-25T03:17:50.023Z,8
2022-12-25T03:18:50.027Z,8
2022-12-25T03:19:50.042Z,10
2022-12-25T03:20:50.059Z,8
2022-12-25T03:21:50.030Z,9
2022-12-25T03:22:50.024Z,10
2022-12-25T03:23:50.025Z,7
2022-12-25T03:24:50.039Z,11
2022-12-25T03:25:50.031Z,7
2022-12-25T03:26:50.016Z,9
2022-12-25T03:27:50.035Z,7
2022-12-25T03:28:50.043Z,8
2022-12-25T03:29:50.062Z,8
2022-12-25T03:30:50.081Z,8
2022-12-25T03:31:50.030Z,7
2022-12-25T03:32:50.033Z,9
2022-12-25T03:33:50.015Z,8
2022-12-25T03:35:50.014Z,8
2022-12-25T03:36:50.034Z,9
2022-12-25T03:37:50.042Z,8
2022-12-25T03:38:50.048Z,9
2022-12-25T03:39:50.042Z,9
2022-12-25T03:40:50.030Z,9
2022-12-25T03:41:50.052Z,9
2022-12-25T03:42:50.032Z,8
2022-12-25T03:43:50.031Z,7
2022-12-25T03:44:50.035Z,8
2022-12-25T03:45:50.077Z,10
2022-12-25T03:46:50.036Z,8
2022-12-25T03:47:50.045Z,7
2022-12-25T03:48:50.089Z,8
2022-12-25T03:49:50.026Z,9
2022-12-25T03:50:50.023Z,11
2022-12-25T03:51:50.049Z,7
2022-12-25T03:52:50.046Z,7
2022-12-25T03:53:50.037Z,6
2022-12-25T03:54:50.211Z,7
2022-12-25T03:56:50.045Z,9
2022-12-25T03:57:50.039Z,7
2022-12-25T03:58:50.022Z,6
2022-12-25T03:59:50.025Z,7
2022-12-25T04:00:50.031Z,8
2022-12-25T04:01:50.291Z,6
2022-12-25T04:02:50.131Z,8
2022-12-25T04:03:50.176Z,8
2022-12-25T04:04:50.026Z,8
2022-12-25T04:05:50.032Z,7
2022-12-25T04:06:50.016Z,8
2022-12-25T04:07:50.044Z,8
2022-12-25T04:08:50.018Z,7
2022-12-25T04:09:50.053Z,7
2022-12-25T04:10:50.047Z,9
2022-12-25T04:11:50.032Z,9
2022-12-25T04:12:50.057Z,5
2022-12-25T04:13:50.028Z,8
2022-12-25T04:14:50.036Z,8
2022-12-25T04:15:50.057Z,10
2022-12-25T04:17:50.036Z,8
2022-12-25T04:18:50.023Z,9
2022-12-25T04:19:50.046Z,8
2022-12-25T04:20:50.029Z,9
2022-12-25T04:21:50.029Z,6
2022-12-25T04:22:50.041Z,8
2022-12-25T04:23:50.047Z,6
2022-12-25T04:24:50.056Z,6
2022-12-25T04:25:50.024Z,7
2022-12-25T04:26:50.032Z,6
2022-12-25T04:27:50.080Z,7
2022-12-25T04:29:50.434Z,7
2022-12-25T04:30:50.101Z,6
2022-12-25T04:31:50.037Z,6
2022-12-25T04:32:50.028Z,5
2022-12-25T04:33:50.053Z,8
2022-12-25T04:34:50.044Z,6
2022-12-25T04:35:50.033Z,7
2022-12-25T04:36:50.029Z,7
2022-12-25T04:37:50.036Z,7
2022-12-25T04:38:50.031Z,6
2022-12-25T04:39:50.046Z,6
2022-12-25T04:40:50.030Z,5
2022-12-25T04:41:50.032Z,9
2022-12-25T04:42:50.037Z,6
2022-12-25T04:43:50.078Z,6
2022-12-25T04:44:50.063Z,6
2022-12-25T04:45:50.018Z,7
2022-12-25T04:46:50.110Z,5
2022-12-25T04:47:50.046Z,8
2022-12-25T04:48:50.040Z,6
2022-12-25T04:49:50.030Z,5
2022-12-25T04:50:50.037Z,6
2022-12-25T04:51:50.044Z,7
2022-12-25T04:52:50.055Z,7
2022-12-25T04:53:50.037Z,6
2022-12-25T04:54:50.045Z,7
2022-12-25T04:55:50.026Z,8
2022-12-25T04:56:50.025Z,7
2022-12-25T04:57:50.028Z,9
2022-12-25T04:58:50.048Z,10
2022-12-25T04:59:50.027Z,7
2022-12-25T05:00:50.037Z,9
2022-12-25T05:01:50.164Z,10
2022-12-25T05:02:50.282Z,10
2022-12-25T05:03:50.120Z,8
2022-12-25T05:04:50.045Z,8
2022-12-25T05:05:50.023Z,7
2022-12-25T05:06:50.054Z,6
2022-12-25T05:07:50.033Z,6
2022-12-25T05:08:50.040Z,9
2022-12-25T05:10:50.055Z,6
2022-12-25T05:11:50.036Z,7
2022-12-25T05:12:50.043Z,7
2022-12-25T05:13:50.034Z,7
2022-12-25T05:14:50.065Z,6
2022-12-25T05:15:50.157Z,6
2022-12-25T05:17:50.108Z,8
2022-12-25T05:18:50.043Z,8
2022-12-25T05:19:50.044Z,6
2022-12-25T05:20:50.038Z,7
2022-12-25T05:22:50.062Z,9
2022-12-25T05:23:50.033Z,8
2022-12-25T05:24:50.039Z,6
2022-12-25T05:25:50.045Z,10
2022-12-25T05:26:50.048Z,7
2022-12-25T05:27:53.876Z,7
2022-12-25T05:28:50.033Z,9
2022-12-25T05:29:50.041Z,7
2022-12-25T05:31:50.172Z,7
2022-12-25T05:32:50.036Z,9
2022-12-25T05:33:50.091Z,10
2022-12-25T05:34:50.026Z,8
2022-12-25T05:35:50.625Z,9
2022-12-25T05:36:50.032Z,8
2022-12-25T05:37:50.031Z,10
2022-12-25T05:39:50.031Z,9
2022-12-25T05:40:50.033Z,9
2022-12-25T05:41:50.027Z,12
2022-12-25T05:42:50.043Z,8
2022-12-25T05:44:50.049Z,11
2022-12-25T05:45:50.075Z,9
2022-12-25T05:46:50.089Z,9
2022-12-25T05:47:50.035Z,6
2022-12-25T05:48:50.038Z,10
2022-12-25T05:50:50.105Z,9
2022-12-25T05:51:50.028Z,7
2022-12-25T05:52:50.050Z,5
2022-12-25T05:53:50.026Z,7
2022-12-25T05:54:50.035Z,7
2022-12-25T05:55:50.040Z,6
2022-12-25T05:56:50.036Z,9
2022-12-25T05:57:50.050Z,6
2022-12-25T05:58:50.028Z,8
2022-12-25T05:59:50.043Z,9
2022-12-25T06:00:50.040Z,9
2022-12-25T06:01:50.188Z,8
2022-12-25T06:02:50.196Z,11
2022-12-25T06:03:50.196Z,8
2022-12-25T06:05:50.041Z,8
2022-12-25T06:06:50.046Z,9
2022-12-25T06:07:50.038Z,8
2022-12-25T06:08:50.048Z,8
2022-12-25T06:09:50.032Z,8
2022-12-25T06:11:50.042Z,7
2022-12-25T06:12:50.037Z,10
2022-12-25T06:13:50.031Z,10
2022-12-25T06:14:50.040Z,7
2022-12-25T06:15:50.076Z,11
2022-12-25T06:16:50.146Z,7
2022-12-25T06:17:50.036Z,8
2022-12-25T06:18:50.045Z,8
2022-12-25T06:19:50.040Z,9
2022-12-25T06:20:50.039Z,7
2022-12-25T06:21:50.031Z,12
2022-12-25T06:22:50.031Z,8
2022-12-25T06:23:50.118Z,10
2022-12-25T06:24:50.061Z,7
2022-12-25T06:25:50.088Z,9
2022-12-25T06:26:50.061Z,10
2022-12-25T06:27:50.031Z,8
2022-12-25T06:28:50.043Z,8
2022-12-25T06:30:50.056Z,8
2022-12-25T06:31:50.139Z,6
2022-12-25T06:32:50.046Z,7
2022-12-25T06:33:50.043Z,6
2022-12-25T06:34:50.045Z,6
2022-12-25T06:35:50.038Z,8
2022-12-25T06:36:50.032Z,8
2022-12-25T06:37:50.078Z,9
2022-12-25T06:38:50.048Z,8
2022-12-25T06:39:50.052Z,8
2022-12-25T06:40:50.042Z,8
2022-12-25T06:41:50.054Z,7
2022-12-25T06:43:50.031Z,8
2022-12-25T06:44:50.035Z,6
2022-12-25T06:45:50.143Z,8
2022-12-25T06:46:50.045Z,8
2022-12-25T06:47:50.074Z,7
2022-12-25T06:48:50.246Z,7
2022-12-25T06:49:50.035Z,7
2022-12-25T06:50:50.034Z,6
2022-12-25T06:51:50.061Z,7
2022-12-25T06:52:50.053Z,6
2022-12-25T06:53:50.070Z,8
2022-12-25T06:54:50.059Z,8
2022-12-25T06:55:50.040Z,6
2022-12-25T06:56:50.106Z,7
2022-12-25T06:57:50.045Z,7
2022-12-25T06:59:55.169Z,6
2022-12-25T07:00:50.106Z,6
2022-12-25T07:01:50.334Z,7
2022-12-25T07:02:50.298Z,7
2022-12-25T07:04:50.035Z,8
2022-12-25T07:05:50.034Z,6
2022-12-25T07:06:50.039Z,7
2022-12-25T07:07:50.036Z,6
2022-12-25T07:08:50.051Z,7
2022-12-25T07:09:50.045Z,7
2022-12-25T07:10:50.067Z,5
2022-12-25T07:11:50.045Z,7
2022-12-25T07:12:50.037Z,6
2022-12-25T07:13:50.036Z,6
2022-12-25T07:14:50.250Z,7
2022-12-25T07:15:50.038Z,7
2022-12-25T07:16:50.162Z,9
2022-12-25T07:17:50.043Z,7
2022-12-25T07:19:50.059Z,5
2022-12-25T07:20:50.040Z,5
2022-12-25T07:21:50.037Z,8
2022-12-25T07:22:50.030Z,6
2022-12-25T07:23:50.049Z,7
2022-12-25T07:25:50.045Z,8
2022-12-25T07:26:50.072Z,8
2022-12-25T07:27:50.057Z,8
2022-12-25T07:28:50.052Z,7
2022-12-25T07:29:50.041Z,6
2022-12-25T07:30:50.037Z,6
2022-12-25T07:31:50.131Z,5
2022-12-25T07:32:50.429Z,6
2022-12-25T07:33:50.042Z,6
2022-12-25T07:34:50.078Z,5
2022-12-25T07:35:50.072Z,6
2022-12-25T07:36:50.096Z,6
2022-12-25T07:37:50.058Z,6
2022-12-25T07:38:50.100Z,8
2022-12-25T07:39:50.045Z,6
2022-12-25T07:41:50.050Z,11
2022-12-25T07:42:50.039Z,7
2022-12-25T07:44:50.052Z,6
2022-12-25T07:45:50.084Z,5
2022-12-25T07:46:50.056Z,6
2022-12-25T07:47:50.041Z,6
2022-12-25T07:48:50.080Z,5
2022-12-25T07:49:50.043Z,5
2022-12-25T07:50:50.117Z,7
2022-12-25T07:51:50.043Z,6
2022-12-25T07:52:50.059Z,6
2022-12-25T07:53:50.069Z,5
2022-12-25T07:54:50.042Z,10
2022-12-25T07:55:50.047Z,7
2022-12-25T07:56:50.053Z,5
2022-12-25T07:57:50.040Z,5
2022-12-25T07:58:50.062Z,5
2022-12-25T07:59:50.046Z,6
2022-12-25T08:00:50.209Z,5
2022-12-25T08:01:50.390Z,6
2022-12-25T08:02:50.231Z,6
2022-12-25T08:03:50.179Z,4
2022-12-25T08:05:50.178Z,5
2022-12-25T08:06:50.047Z,6
2022-12-25T08:07:56.980Z,7
2022-12-25T08:08:50.043Z,7
2022-12-25T08:09:50.110Z,4
2022-12-25T08:10:50.039Z,8
2022-12-25T08:11:50.072Z,5
2022-12-25T08:12:50.044Z,5
2022-12-25T08:13:50.042Z,6
2022-12-25T08:14:50.041Z,5
2022-12-25T08:15:50.078Z,6
2022-12-25T08:16:50.132Z,5
2022-12-25T08:17:50.043Z,7
2022-12-25T08:18:50.054Z,9
2022-12-25T08:19:50.046Z,8
2022-12-25T08:20:50.056Z,5
2022-12-25T08:21:50.041Z,9
2022-12-25T08:22:50.050Z,7
2022-12-25T08:23:50.061Z,6
2022-12-25T08:24:50.066Z,9
2022-12-25T08:26:50.054Z,7
2022-12-25T08:27:50.065Z,7
2022-12-25T08:28:50.088Z,8
2022-12-25T08:29:50.237Z,6
2022-12-25T08:30:50.126Z,7
2022-12-25T08:31:50.045Z,7
2022-12-25T08:32:50.048Z,8
2022-12-25T08:33:50.051Z,7
2022-12-25T08:34:50.041Z,8
2022-12-25T08:35:50.048Z,11
2022-12-25T08:37:50.086Z,8
2022-12-25T08:38:50.061Z,13
2022-12-25T08:39:50.039Z,8
2022-12-25T08:40:50.056Z,7
2022-12-25T08:41:50.077Z,6
2022-12-25T08:42:50.049Z,8
2022-12-25T08:43:50.058Z,7
2022-12-25T08:44:50.043Z,5
2022-12-25T08:45:50.091Z,6
2022-12-25T08:46:50.068Z,6
2022-12-25T08:47:50.050Z,6
2022-12-25T08:48:50.055Z,7
2022-12-25T08:49:50.072Z,7
2022-12-25T08:50:50.039Z,8
2022-12-25T08:51:50.093Z,6
2022-12-25T08:52:50.044Z,7
2022-12-25T08:53:50.043Z,4
2022-12-25T08:54:50.048Z,7
2022-12-25T08:55:50.055Z,9
2022-12-25T08:56:50.048Z,8
2022-12-25T08:58:50.087Z,11
2022-12-25T08:59:50.062Z,6
2022-12-25T09:00:50.054Z,8
2022-12-25T09:01:50.146Z,8
2022-12-25T09:02:50.182Z,6
2022-12-25T09:03:50.125Z,9
2022-12-25T09:04:50.042Z,8
2022-12-25T09:05:50.072Z,8
2022-12-25T09:06:50.136Z,7
2022-12-25T09:07:50.095Z,7
2022-12-25T09:08:50.229Z,7
2022-12-25T09:09:50.065Z,6
2022-12-25T09:10:50.068Z,5
2022-12-25T09:11:50.048Z,6
2022-12-25T09:12:50.085Z,8
2022-12-25T09:13:50.060Z,7
2022-12-25T09:14:50.049Z,6
2022-12-25T09:15:50.096Z,7
2022-12-25T09:16:50.043Z,6
2022-12-25T09:17:50.086Z,8
2022-12-25T09:19:50.050Z,5
2022-12-25T09:20:50.135Z,9
2022-12-25T09:21:50.111Z,8
2022-12-25T09:22:50.071Z,5
2022-12-25T09:23:50.053Z,7
2022-12-25T09:24:50.259Z,7
2022-12-25T09:25:50.067Z,6
2022-12-25T09:26:50.091Z,6
2022-12-25T09:27:50.069Z,10
2022-12-25T09:28:52.355Z,6
2022-12-25T09:29:50.158Z,10
2022-12-25T09:30:50.184Z,6
2022-12-25T09:31:50.065Z,6
2022-12-25T09:32:50.050Z,6
2022-12-25T09:33:50.080Z,6
2022-12-25T09:34:50.154Z,6
2022-12-25T09:35:50.047Z,7
2022-12-25T09:36:50.045Z,8
2022-12-25T09:38:50.086Z,9
2022-12-25T09:39:50.135Z,6
2022-12-25T09:41:50.049Z,7
2022-12-25T09:42:50.076Z,6
2022-12-25T09:43:50.066Z,6
2022-12-25T09:44:50.131Z,7
2022-12-25T09:45:50.112Z,7
2022-12-25T09:46:50.183Z,5
2022-12-25T09:47:50.067Z,8
2022-12-25T09:48:50.090Z,7
2022-12-25T09:49:50.099Z,8
2022-12-25T09:50:50.071Z,8
2022-12-25T09:51:50.074Z,8
2022-12-25T09:52:50.107Z,9
2022-12-25T09:53:50.091Z,9
2022-12-25T09:54:50.235Z,7
2022-12-25T09:55:50.060Z,6
2022-12-25T09:56:50.063Z,8
2022-12-25T09:57:50.064Z,7
2022-12-25T09:59:50.094Z,7
2022-12-25T10:00:50.057Z,7
2022-12-25T10:01:50.186Z,7
2022-12-25T10:02:50.308Z,12
2022-12-25T10:03:50.221Z,5
2022-12-25T10:04:50.074Z,6
2022-12-25T10:05:50.065Z,9
2022-12-25T10:06:50.075Z,7
2022-12-25T10:07:50.072Z,7
2022-12-25T10:08:50.093Z,8
2022-12-25T10:09:50.109Z,9
2022-12-25T10:10:50.089Z,6
2022-12-25T10:11:50.047Z,8
2022-12-25T10:12:50.065Z,8
2022-12-25T10:13:50.086Z,7
2022-12-25T10:14:50.067Z,6
2022-12-25T10:15:50.145Z,7
2022-12-25T10:16:50.050Z,5
2022-12-25T10:17:50.073Z,8
2022-12-25T10:18:50.151Z,6
2022-12-25T10:20:50.066Z,6
2022-12-25T10:21:50.122Z,9
2022-12-25T10:23:50.080Z,7
2022-12-25T10:24:50.078Z,7
2022-12-25T10:25:50.092Z,10
2022-12-25T10:26:50.169Z,8
2022-12-25T10:28:50.068Z,10
2022-12-25T10:29:50.080Z,12
2022-12-25T10:30:50.102Z,8
2022-12-25T10:31:50.064Z,10
2022-12-25T10:32:50.151Z,10
2022-12-25T10:33:50.072Z,10
2022-12-25T10:34:50.087Z,8
2022-12-25T10:35:50.042Z,9
2022-12-25T10:36:50.079Z,9
2022-12-25T10:37:50.071Z,8
2022-12-25T10:38:50.064Z,10
2022-12-25T10:39:50.072Z,11
2022-12-25T10:40:50.087Z,10
2022-12-25T10:41:50.080Z,9
2022-12-25T10:42:50.076Z,10
2022-12-25T10:43:50.090Z,9
2022-12-25T10:44:50.063Z,7
2022-12-25T10:45:50.102Z,6
2022-12-25T10:46:50.197Z,8
2022-12-25T10:47:58.561Z,7
2022-12-25T10:48:50.078Z,8
2022-12-25T10:49:50.081Z,7
2022-12-25T10:50:50.094Z,6
2022-12-25T10:52:50.069Z,7
2022-12-25T10:53:50.067Z,6
2022-12-25T10:54:50.088Z,5
2022-12-25T10:55:50.072Z,6
2022-12-25T10:56:50.085Z,8
2022-12-25T10:57:50.057Z,6
2022-12-25T10:58:50.080Z,6
2022-12-25T10:59:50.080Z,8
2022-12-25T11:00:50.102Z,5
2022-12-25T11:01:55.052Z,6
2022-12-25T11:02:50.248Z,7
2022-12-25T11:04:50.067Z,5
2022-12-25T11:05:50.063Z,6
2022-12-25T11:06:50.098Z,7
2022-12-25T11:07:50.065Z,7
2022-12-25T11:08:50.086Z,7
2022-12-25T11:09:50.085Z,7
2022-12-25T11:11:50.095Z,6
2022-12-25T11:13:50.076Z,9
2022-12-25T11:14:50.071Z,6
2022-12-25T11:15:50.137Z,7
2022-12-25T11:16:50.093Z,6
2022-12-25T11:17:50.068Z,6
2022-12-25T11:18:50.085Z,6
2022-12-25T11:19:50.155Z,6
2022-12-25T11:20:50.072Z,9
2022-12-25T11:21:50.078Z,8
2022-12-25T11:22:50.084Z,8
2022-12-25T11:23:50.071Z,7
2022-12-25T11:24:50.076Z,9
2022-12-25T11:25:50.080Z,6
2022-12-25T11:26:50.089Z,7
2022-12-25T11:27:53.504Z,9
2022-12-25T11:28:50.085Z,8
2022-12-25T11:29:50.070Z,8
2022-12-25T11:30:50.067Z,7
2022-12-25T11:31:50.186Z,7
2022-12-25T11:32:50.075Z,7
2022-12-25T11:34:50.072Z,8
2022-12-25T11:35:50.098Z,7
2022-12-25T11:36:50.080Z,7
2022-12-25T11:37:50.077Z,5
2022-12-25T11:38:50.079Z,6
2022-12-25T11:39:50.067Z,6
2022-12-25T11:41:50.068Z,6
2022-12-25T11:42:50.103Z,5
2022-12-25T11:43:50.102Z,7
2022-12-25T11:44:50.093Z,8
2022-12-25T11:45:50.127Z,8
2022-12-25T11:46:50.172Z,6
2022-12-25T11:47:50.067Z,7
2022-12-25T11:48:50.089Z,6
2022-12-25T11:49:51.499Z,6
2022-12-25T11:50:50.079Z,6
2022-12-25T11:51:50.076Z,5
2022-12-25T11:53:50.074Z,6
2022-12-25T11:54:50.071Z,5
2022-12-25T11:55:50.078Z,5
2022-12-25T11:56:50.469Z,6
2022-12-25T11:57:50.075Z,7
2022-12-25T11:58:50.070Z,6
2022-12-25T11:59:50.075Z,4
2022-12-25T12:00:50.108Z,5
2022-12-25T12:01:50.221Z,5
2022-12-25T12:02:50.312Z,5
2022-12-25T12:03:50.148Z,7
2022-12-25T12:04:50.080Z,5
2022-12-25T12:05:50.077Z,5
2022-12-25T12:06:50.088Z,7
2022-12-25T12:07:50.084Z,6
2022-12-25T12:08:50.091Z,5
2022-12-25T12:09:50.073Z,6
2022-12-25T12:10:50.090Z,4
2022-12-25T12:11:50.075Z,6
2022-12-25T12:12:50.073Z,6
2022-12-25T12:14:50.096Z,5
2022-12-25T12:15:50.068Z,5
2022-12-25T12:16:50.158Z,6
2022-12-25T12:17:50.076Z,6
2022-12-25T12:18:50.925Z,8
2022-12-25T12:19:50.080Z,5
2022-12-25T12:20:50.076Z,5
2022-12-25T12:21:50.073Z,7
2022-12-25T12:22:50.092Z,7
2022-12-25T12:23:50.084Z,6
2022-12-25T12:24:50.081Z,7
2022-12-25T12:25:50.094Z,6
2022-12-25T12:26:50.074Z,6
2022-12-25T12:27:50.079Z,7
2022-12-25T12:28:50.088Z,6
2022-12-25T12:29:50.088Z,6
2022-12-25T12:30:50.069Z,5
2022-12-25T12:31:50.226Z,6
2022-12-25T12:32:50.074Z,6
2022-12-25T12:33:50.082Z,6
2022-12-25T12:34:50.135Z,6
2022-12-25T12:35:50.079Z,6
2022-12-25T12:36:50.093Z,4
2022-12-25T12:37:50.075Z,8
2022-12-25T12:38:50.076Z,7
2022-12-25T12:39:50.157Z,7
2022-12-25T12:40:50.067Z,6
2022-12-25T12:41:50.070Z,6
2022-12-25T12:42:50.077Z,5
2022-12-25T12:43:50.077Z,7
2022-12-25T12:44:50.128Z,6
2022-12-25T12:46:50.129Z,6
2022-12-25T12:47:50.074Z,7
2022-12-25T12:48:50.072Z,7
2022-12-25T12:49:50.080Z,7
2022-12-25T12:50:50.095Z,6
2022-12-25T12:51:50.081Z,5
2022-12-25T12:52:50.068Z,9
2022-12-25T12:53:50.094Z,6
2022-12-25T12:54:50.093Z,6
2022-12-25T12:55:50.086Z,8
2022-12-25T12:56:50.080Z,6
2022-12-25T12:57:50.078Z,7
2022-12-25T12:58:50.134Z,8
2022-12-25T12:59:50.075Z,7
2022-12-25T13:00:50.159Z,8
2022-12-25T13:01:50.266Z,7
2022-12-25T13:02:50.294Z,8
2022-12-25T13:03:50.081Z,5
2022-12-25T13:04:50.102Z,7
2022-12-25T13:05:50.114Z,7
2022-12-25T13:07:50.079Z,6
2022-12-25T13:08:50.090Z,7
2022-12-25T13:09:50.079Z,8
2022-12-25T13:10:50.087Z,6
2022-12-25T13:11:50.083Z,6
2022-12-25T13:12:50.078Z,7
2022-12-25T13:13:50.081Z,7
2022-12-25T13:14:50.107Z,7
2022-12-25T13:15:50.125Z,7
2022-12-25T13:16:50.187Z,7
2022-12-25T13:17:50.086Z,7
2022-12-25T13:18:50.081Z,7
2022-12-25T13:19:50.107Z,7
2022-12-25T13:20:50.457Z,8
2022-12-25T13:21:50.092Z,7
2022-12-25T13:22:52.911Z,8
2022-12-25T13:23:50.081Z,8
2022-12-25T13:24:50.105Z,9
2022-12-25T13:25:50.096Z,7
2022-12-25T13:26:50.086Z,8
2022-12-25T13:28:50.150Z,8
2022-12-25T13:29:50.088Z,10
2022-12-25T13:30:50.099Z,8
2022-12-25T13:31:50.156Z,8
2022-12-25T13:32:50.214Z,7
2022-12-25T13:33:50.087Z,10
2022-12-25T13:34:50.081Z,7
2022-12-25T13:35:50.081Z,8
2022-12-25T13:36:50.077Z,8
2022-12-25T13:37:50.081Z,7
2022-12-25T13:38:50.088Z,7
2022-12-25T13:39:50.077Z,7
2022-12-25T13:40:50.083Z,8
2022-12-25T13:41:50.080Z,9
2022-12-25T13:42:50.211Z,8
2022-12-25T13:43:50.099Z,6
2022-12-25T13:44:50.080Z,8
2022-12-25T13:45:50.139Z,8
2022-12-25T13:47:55.206Z,8
2022-12-25T13:48:50.090Z,7
2022-12-25T13:49:50.176Z,9
2022-12-25T13:50:50.087Z,8
2022-12-25T13:51:50.078Z,8
2022-12-25T13:52:50.101Z,9
2022-12-25T13:53:50.078Z,9
2022-12-25T13:54:50.094Z,8
2022-12-25T13:55:50.084Z,8
2022-12-25T13:56:50.106Z,11
2022-12-25T13:57:50.088Z,8
2022-12-25T13:58:50.090Z,12
2022-12-25T13:59:50.078Z,8
2022-12-25T14:00:50.208Z,9
2022-12-25T14:01:50.285Z,9
2022-12-25T14:02:50.339Z,8
2022-12-25T14:03:50.122Z,9
2022-12-25T14:04:50.087Z,10
2022-12-25T14:05:50.089Z,11
2022-12-25T14:06:50.100Z,8
2022-12-25T14:08:50.082Z,9
2022-12-25T14:09:50.088Z,9
2022-12-25T14:10:50.096Z,8
2022-12-25T14:11:50.104Z,8
2022-12-25T14:12:50.079Z,9
2022-12-25T14:13:50.089Z,9
2022-12-25T14:14:50.091Z,9
2022-12-25T14:15:50.090Z,9
2022-12-25T14:16:50.204Z,9
2022-12-25T14:17:50.117Z,9
2022-12-25T14:18:50.085Z,8
2022-12-25T14:19:50.086Z,9
2022-12-25T14:20:50.079Z,8
2022-12-25T14:21:50.097Z,8
2022-12-25T14:22:50.159Z,8
2022-12-25T14:23:50.096Z,9
2022-12-25T14:24:50.087Z,7
2022-12-25T14:25:50.276Z,8
2022-12-25T14:27:50.113Z,7
2022-12-25T14:28:50.084Z,7
2022-12-25T14:29:50.128Z,8
2022-12-25T14:30:50.171Z,8
2022-12-25T14:31:50.092Z,8
2022-12-25T14:32:50.090Z,8
2022-12-25T14:34:50.089Z,9
2022-12-25T14:35:50.187Z,9
2022-12-25T14:36:50.151Z,12
2022-12-25T14:37:50.105Z,8
2022-12-25T14:38:50.090Z,7
2022-12-25T14:39:50.085Z,9
2022-12-25T14:40:50.083Z,9
2022-12-25T14:41:50.088Z,9
2022-12-25T14:42:50.107Z,9
2022-12-25T14:43:50.089Z,7
2022-12-25T14:44:50.083Z,7
2022-12-25T14:45:50.105Z,8
2022-12-25T14:46:50.095Z,8
2022-12-25T14:47:50.210Z,9
2022-12-25T14:48:50.124Z,8
2022-12-25T14:49:50.095Z,9
2022-12-25T14:50:50.097Z,8
2022-12-25T14:51:50.090Z,10
2022-12-25T14:52:50.088Z,8
2022-12-25T14:53:50.114Z,9
2022-12-25T14:54:50.100Z,9
2022-12-25T14:56:50.096Z,9
2022-12-25T14:57:50.096Z,9
2022-12-25T14:58:50.104Z,8
2022-12-25T14:59:50.104Z,10
2022-12-25T15:01:50.305Z,11
2022-12-25T15:02:50.469Z,11
2022-12-25T15:03:50.183Z,9
2022-12-25T15:04:50.099Z,10
2022-12-25T15:05:50.091Z,10
2022-12-25T15:06:50.223Z,9
2022-12-25T15:07:50.094Z,12
2022-12-25T15:08:50.106Z,11
2022-12-25T15:09:50.107Z,7
2022-12-25T15:11:05.097Z,9
2022-12-25T15:11:50.104Z,10
2022-12-25T15:12:50.099Z,9
2022-12-25T15:13:50.116Z,9
2022-12-25T15:14:50.099Z,11
2022-12-25T15:15:50.124Z,11
2022-12-25T15:16:50.087Z,9
2022-12-25T15:17:50.093Z,10
2022-12-25T15:18:50.128Z,10
2022-12-25T15:19:50.112Z,10
2022-12-25T15:20:50.100Z,10
2022-12-25T15:23:18.564Z,10
2022-12-25T15:23:50.098Z,9
2022-12-25T15:24:50.105Z,8
2022-12-25T15:25:50.100Z,8
2022-12-25T15:26:50.094Z,9
2022-12-25T15:27:50.094Z,9
2022-12-25T15:28:50.104Z,11
2022-12-25T15:30:11.147Z,11
2022-12-25T15:30:50.295Z,10
2022-12-25T15:31:50.096Z,12
2022-12-25T15:32:50.085Z,11
2022-12-25T15:33:50.096Z,11
2022-12-25T15:34:50.278Z,12
2022-12-25T15:35:50.115Z,9
2022-12-25T15:36:50.097Z,11
2022-12-25T15:38:50.101Z,9
2022-12-25T15:39:50.102Z,11
2022-12-25T15:40:50.091Z,11